Latest Weather Observations for Maria Island

IDT60801

Issued at 7:05 pm EST Thursday 31 July 2014 (issued every 30 minutes, with the page automatically refreshed every 10 minutes)

About weather observations | Map of weather stations | Latest weather observations for TAS | Other Formats
Station Details ID: 092124 Name: MARIA ISLAND (POINT LESUEUR) Lat: -42.66 Lon: 148.02 Height: 28.0 m
Data from the previous 72 hours. | See also: Recent months at Maria Island
Date/Time
EST
Temp
°C
App
Temp
°C
Dew
Point
Rel
Hum
%
Delta-T
°C
Wind Press
QNH
hPa
Press
MSL
hPa
Rain
since 9 am
mm
Dir
 
Spd
km/h
Gust
km/h
Spd
kts
Gust
kts
31/07:00pm 9.3 0.8 5.1 75 1.9 NNW 39 48 21 26 982.4 982.4 22.4
31/06:30pm 9.1 -0.6 5.8 80 1.5 NNW 46 57 25 31 981.4 - 22.4
31/06:06pm 9.7 -0.7 6.1 78 1.7 NNW 50 69 27 37 981.1 - 22.2
31/06:00pm 9.8 -0.6 6.2 78 1.7 NNW 50 57 27 31 981.3 981.3 22.2
31/05:47pm 9.8 1.2 6.7 81 1.5 NNW 41 56 22 30 981.3 - 22.2
31/05:30pm 9.3 2.7 6.0 80 1.5 N 30 35 16 19 981.3 - 22.2
31/05:00pm 8.5 5.0 5.4 81 1.4 WNW 13 19 7 10 981.5 981.5 22.2
31/04:30pm 8.3 3.2 6.1 86 1.0 N 22 30 12 16 982.4 - 22.2
31/04:00pm 7.6 5.5 6.5 93 0.5 NW 7 15 4 8 982.0 982.0 22.2
31/03:30pm 7.2 3.5 6.3 94 0.4 SW 15 20 8 11 982.1 - 22.2
31/03:00pm 7.3 2.4 6.7 96 0.3 S 22 26 12 14 980.7 980.7 22.2
31/02:30pm 7.7 3.5 7.3 97 0.2 SSW 19 26 10 14 981.9 - 22.0
31/02:00pm 7.8 -2.3 7.5 98 0.1 SW 50 54 27 29 980.9 980.9 20.4
31/01:39pm 8.1 1.3 7.7 97 0.2 S 33 41 18 22 980.4 - 17.6
31/01:30pm 7.9 5.6 7.5 97 0.2 SW 9 15 5 8 980.5 - 16.4
31/01:00pm 8.0 3.8 7.6 97 0.2 ESE 19 24 10 13 980.7 980.7 14.2
31/12:30pm 7.6 2.7 7.0 96 0.3 ESE 22 26 12 14 981.7 - 13.0
31/12:00pm 7.9 4.8 7.3 96 0.3 E 13 15 7 8 983.0 983.0 11.6
31/11:30am 8.2 4.4 7.6 96 0.3 S 17 20 9 11 984.3 - 9.4
31/11:00am 8.0 4.9 7.2 95 0.4 S 13 20 7 11 985.1 985.1 5.0
31/10:30am 8.3 6.4 7.4 94 0.4 ESE 7 11 4 6 985.3 - 1.6
31/10:00am 8.4 5.8 7.6 95 0.4 NE 11 15 6 8 986.3 986.3 0.4
31/09:30am 8.3 6.4 7.5 95 0.4 ENE 7 17 4 9 986.9 - 0.4
31/09:00am 7.9 5.9 7.1 95 0.4 E 7 11 4 6 987.8 987.8 5.8
31/08:30am 7.7 5.7 7.0 95 0.3 E 7 9 4 5 988.2 - 5.6
31/08:00am 7.9 5.5 7.0 94 0.4 SSE 9 13 5 7 988.7 988.7 5.0
31/07:30am 7.9 3.4 7.0 94 0.4 S 20 24 11 13 989.4 - 4.6
31/07:00am 8.3 3.5 7.4 94 0.4 S 22 26 12 14 989.5 989.5 3.6
31/06:30am 8.3 3.2 7.7 96 0.3 S 24 30 13 16 989.2 - 3.2
31/06:00am 7.9 1.1 7.5 97 0.2 S 33 39 18 21 988.9 988.9 3.2
31/05:48am 8.1 0.2 7.7 97 0.2 SSW 39 44 21 24 989.5 - 2.8
31/05:37am 8.2 -4.3 7.6 96 0.3 SSW 63 82 34 44 989.4 - 1.4
31/05:33am 8.7 -5.0 7.5 92 0.6 SSW 69 82 37 44 988.3 - 1.0
31/05:32am 9.3 1.0 7.7 90 0.8 SW 41 80 22 43 988.7 - 0.6
31/05:30am 9.6 2.7 7.2 85 1.1 SW 33 44 18 24 989.5 - 0.4
31/05:27am 12.8 8.6 9.6 81 1.6 WNW 22 28 12 15 989.3 - 0.2
31/05:00am 13.1 5.2 9.4 78 1.9 N 41 50 22 27 987.9 987.9 0.2
31/04:30am 12.9 6.8 9.7 81 1.6 N 32 37 17 20 987.9 - 0.2
31/04:00am 13.1 7.8 9.7 80 1.8 NNW 28 35 15 19 988.1 988.1 0.2
31/03:30am 13.2 6.9 9.6 79 1.8 NNW 33 41 18 22 988.2 - 0.2
31/03:00am 13.6 5.3 9.5 76 2.1 NNW 43 50 23 27 988.3 988.3 0.2
31/02:30am 13.7 3.3 9.4 75 2.2 NNW 54 65 29 35 988.0 - 0.2
31/02:00am 13.2 3.3 8.3 72 2.5 NNW 50 59 27 32 988.5 988.5 0.2
31/01:30am 12.9 3.0 8.2 73 2.3 NNW 50 61 27 33 988.2 - 0.2
31/01:00am 13.1 2.0 8.2 72 2.5 NNW 56 67 30 36 988.2 988.2 0.2
31/12:30am 13.0 2.4 8.3 73 2.3 NNW 54 65 29 35 988.4 - 0.2
31/12:00am 12.9 2.2 8.2 73 2.4 NNW 54 67 29 36 989.3 989.3 0.2
 
Date/Time
EST
Temp
°C
App
Temp
°C
Dew
Point
Rel
Hum
%
Delta-T
°C
Wind Press
QNH
hPa
Press
MSL
hPa
Rain
since 9 am
mm
Dir
 
Spd
km/h
Gust
km/h
Spd
kts
Gust
kts
30/11:30pm 13.5 2.2 7.3 66 3.0 NNW 56 67 30 36 989.1 - 0.2
30/11:11pm 13.4 2.6 7.6 68 2.8 NNW 54 72 29 39 989.4 - 0.2
30/11:00pm 13.8 2.7 6.4 61 3.6 NW 54 69 29 37 989.5 989.5 0.2
30/10:30pm 13.3 4.1 8.2 71 2.5 NNW 46 59 25 32 990.0 - 0.2
30/10:00pm 13.3 3.1 8.4 72 2.5 NNW 52 61 28 33 989.8 989.8 0.2
30/09:30pm 13.3 2.3 8.4 72 2.4 NNW 56 69 30 37 989.9 - 0.2
30/09:00pm 13.4 2.7 8.0 70 2.7 NNW 54 67 29 36 990.2 990.2 0.2
30/08:30pm 13.1 4.8 7.8 70 2.6 NNW 41 54 22 29 991.1 - 0.2
30/08:00pm 13.4 5.3 7.0 65 3.1 NNW 39 50 21 27 991.5 991.6 0.2
30/07:30pm 13.6 4.8 5.7 59 3.7 NW 41 57 22 31 992.4 - 0.2
30/07:00pm 13.9 5.2 5.8 58 3.9 NW 41 56 22 30 992.9 993.0 0.2
30/06:32pm 14.2 4.4 5.3 55 4.2 WNW 46 67 25 36 992.4 - 0.2
30/06:30pm 14.2 4.9 6.1 58 3.9 WNW 44 61 24 33 992.5 - 0.2
30/06:17pm 14.3 2.8 6.2 58 3.9 NW 56 76 30 41 992.3 - 0.2
30/06:11pm 14.0 3.7 6.6 61 3.6 NW 50 67 27 36 992.1 - 0.2
30/06:00pm 13.4 5.7 8.7 73 2.4 NW 39 48 21 26 992.5 992.6 0.0
30/05:30pm 13.3 5.9 8.2 71 2.5 NW 37 46 20 25 992.7 - 0.0
30/05:00pm 12.9 6.9 8.6 75 2.2 NW 30 39 16 21 992.8 992.9 0.0
30/04:54pm 12.9 6.6 8.8 76 2.1 NW 32 39 17 21 992.9 - 0.0
30/04:34pm 13.4 3.7 7.6 68 2.8 W 48 67 26 36 992.8 - 0.0
30/04:30pm 13.7 4.7 7.2 65 3.2 W 44 56 24 30 992.6 - 0.0
30/04:02pm 14.5 7.2 7.1 61 3.6 NW 35 59 19 32 992.5 - 0.0
30/04:00pm 14.5 7.2 7.3 62 3.6 NW 35 48 19 26 992.5 992.6 0.0
30/03:30pm 14.4 6.1 7.7 64 3.3 NW 41 50 22 27 992.3 - 0.0
30/03:11pm 14.5 6.1 7.3 62 3.5 NW 41 59 22 32 992.5 - 0.0
30/03:00pm 14.9 6.6 6.2 56 4.2 WNW 39 48 21 26 992.6 992.7 0.0
30/02:59pm 14.9 6.6 6.2 56 4.2 WNW 39 48 21 26 992.6 - 0.0
30/02:30pm 15.1 2.4 5.3 52 4.6 WNW 61 82 33 44 992.4 - 0.0
30/02:00pm 15.0 3.8 5.8 54 4.4 WNW 54 78 29 42 992.7 992.8 0.0
30/01:49pm 15.1 3.8 5.3 52 4.6 WNW 54 76 29 41 992.7 - 0.0
30/01:30pm 15.2 4.3 5.7 53 4.5 WNW 52 69 28 37 992.9 - 0.0
30/01:00pm 14.7 3.5 5.8 55 4.3 WNW 54 78 29 42 992.7 992.8 0.0
30/12:30pm 14.5 3.6 7.1 61 3.6 NW 54 78 29 42 993.2 - 0.0
30/12:00pm 14.8 4.1 6.4 57 4.1 NW 52 72 28 39 993.5 993.6 0.0
30/11:55am 14.5 4.2 6.3 58 3.9 NW 50 70 27 38 993.4 - 0.0
30/11:30am 14.2 4.7 6.8 61 3.6 NW 46 57 25 31 994.2 - 0.0
30/11:14am 14.3 4.7 6.2 58 3.9 NW 46 67 25 36 994.5 - 0.0
30/11:00am 13.9 5.3 6.5 61 3.6 NW 41 48 22 26 994.9 995.0 0.0
30/10:30am 12.8 4.6 6.6 66 3.0 NNW 39 52 21 28 995.5 - 0.0
30/10:00am 12.2 3.1 5.8 65 3.0 NW 43 54 23 29 995.4 995.5 0.0
30/09:30am 11.5 1.2 4.9 64 3.0 NW 48 61 26 33 995.5 - 0.0
30/09:00am 11.3 1.7 4.5 63 3.1 NNW 44 57 24 31 995.6 995.7 6.0
30/08:30am 10.8 0.2 3.1 59 3.4 NW 48 61 26 33 995.7 - 6.0
30/08:00am 10.9 1.6 3.0 58 3.5 NNW 41 54 22 29 996.0 996.1 6.0
30/07:30am 10.6 2.7 2.2 56 3.6 NNW 33 46 18 25 996.0 - 6.0
30/07:00am 10.2 2.3 1.1 53 3.8 WNW 32 41 17 22 995.7 995.8 6.0
30/06:30am 9.8 1.1 2.2 59 3.2 WNW 37 48 20 26 996.7 - 6.0
30/06:00am 9.5 1.7 3.0 64 2.8 WNW 33 44 18 24 996.8 996.9 6.0
30/05:30am 9.3 0.9 3.7 68 2.4 W 37 50 20 27 996.8 - 6.0
30/05:00am 9.5 0.4 4.1 69 2.4 WNW 41 54 22 29 996.5 996.6 6.0
30/04:41am 9.6 2.1 4.2 69 2.4 WNW 33 50 18 27 996.2 - 6.0
30/04:30am 9.3 3.9 4.5 72 2.1 WNW 22 30 12 16 996.4 - 6.0
30/04:00am 9.2 1.8 5.0 75 1.9 W 33 44 18 24 995.6 995.7 6.0
30/03:30am 8.9 1.2 5.3 78 1.6 WNW 35 46 19 25 994.7 - 6.0
30/03:00am 8.7 1.5 4.9 77 1.7 WNW 32 39 17 21 994.3 994.4 6.0
30/02:43am 8.8 1.9 4.6 75 1.9 WNW 30 44 16 24 993.8 - 6.0
30/02:30am 8.4 3.6 4.8 78 1.6 WNW 19 24 10 13 993.8 - 6.0
30/02:00am 8.3 -0.7 4.7 78 1.6 WNW 41 50 22 27 993.0 993.1 6.0
30/01:32am 8.0 -2.2 5.1 82 1.3 W 48 67 26 36 993.3 - 6.0
30/01:30am 8.2 -2.4 5.1 81 1.4 W 50 67 27 36 993.4 - 6.0
30/01:17am 8.7 -3.5 5.4 80 1.5 W 59 80 32 43 992.7 - 5.6
30/01:15am 8.6 -4.9 4.8 77 1.7 WNW 65 80 35 43 992.4 - 5.6
30/01:14am 8.8 -0.6 4.6 75 1.9 WNW 43 80 23 43 992.5 - 5.4
30/01:03am 9.2 2.6 4.4 72 2.1 W 28 56 15 30 992.2 - 5.0
30/01:00am 8.8 2.7 4.6 75 1.9 WNW 26 35 14 19 992.2 992.3 5.0
30/12:30am 8.2 1.9 5.5 83 1.2 W 28 39 15 21 991.9 - 5.0
30/12:00am 9.5 4.6 5.1 74 2.0 WNW 20 28 11 15 991.0 991.1 4.4
 
Date/Time
EST
Temp
°C
App
Temp
°C
Dew
Point
Rel
Hum
%
Delta-T
°C
Wind Press
QNH
hPa
Press
MSL
hPa
Rain
since 9 am
mm
Dir
 
Spd
km/h
Gust
km/h
Spd
kts
Gust
kts
29/11:30pm 9.2 -0.3 5.0 75 1.9 NW 44 63 24 34 990.2 - 4.4
29/11:04pm 8.0 -1.7 5.6 85 1.1 WNW 46 67 25 36 990.1 - 4.4
29/11:00pm 7.9 -2.6 5.7 86 1.0 WNW 50 69 27 37 990.1 990.1 4.4
29/10:30pm 8.4 -4.7 4.8 78 1.6 W 63 83 34 45 990.1 - 2.4
29/10:27pm 9.5 -2.5 4.7 72 2.1 W 57 74 31 40 990.1 - 2.0
29/10:15pm 10.8 -0.2 4.9 67 2.7 WNW 52 70 28 38 989.8 - 1.8
29/10:00pm 12.1 0.8 3.6 56 3.8 NW 52 63 28 34 988.9 988.9 1.8
29/09:30pm 12.9 3.3 1.0 44 5.0 WNW 41 61 22 33 988.2 - 1.8
29/09:00pm 13.1 2.0 2.4 48 4.7 WNW 50 69 27 37 988.1 988.1 1.8
29/08:43pm 13.1 2.3 1.8 46 4.9 WNW 48 85 26 46 987.5 - 1.8
29/08:31pm 12.8 2.9 2.9 51 4.4 WNW 44 63 24 34 987.3 - 1.8
29/08:30pm 12.7 2.4 2.6 50 4.4 WNW 46 63 25 34 987.1 - 1.8
29/08:03pm 12.3 1.4 3.8 56 3.8 WNW 50 78 27 42 986.8 - 1.8
29/08:00pm 12.1 1.8 4.6 60 3.5 WNW 48 65 26 35 987.1 987.1 1.8
29/07:30pm 11.3 2.1 6.2 71 2.4 NW 44 76 24 41 986.9 - 1.8
29/07:11pm 10.3 -1.0 7.0 80 1.6 WNW 56 76 30 41 987.3 - 1.8
29/07:08pm 10.4 -1.1 6.9 79 1.7 W 57 76 31 41 987.8 - 1.6
29/07:03pm 11.5 5.0 8.0 79 1.7 W 32 54 17 29 988.2 - 1.0
29/07:00pm 11.6 5.8 7.9 78 1.8 W 28 39 15 21 987.9 987.9 0.8
29/06:51pm 12.0 3.3 7.5 74 2.2 W 43 63 23 34 987.2 - 0.6
29/06:42pm 12.3 1.8 7.2 71 2.5 W 52 61 28 33 986.9 - 0.6
29/06:30pm 13.0 2.8 6.8 66 3.0 NW 50 67 27 36 985.9 - 0.4
29/06:07pm 13.6 4.7 6.7 63 3.3 NW 43 70 23 38 984.8 - 0.2
29/06:00pm 13.6 5.2 7.4 66 3.1 NNW 41 54 22 29 985.0 985.0 0.2
29/05:30pm 13.1 5.4 8.8 75 2.2 NNW 39 48 21 26 985.1 - 0.0
29/05:29pm 13.1 5.4 8.8 75 2.2 NNW 39 43 21 23 985.2 - 0.0
29/05:00pm 13.1 1.9 8.4 73 2.4 N 57 67 31 36 984.8 984.8 0.0
29/04:30pm 13.0 4.3 8.3 73 2.3 N 44 56 24 30 985.2 - 0.0
29/04:00pm 13.0 4.2 7.9 71 2.5 NNW 44 54 24 29 985.8 985.8 0.0
29/03:30pm 13.1 4.5 8.2 72 2.4 NNW 43 48 23 26 986.2 - 0.0
29/03:00pm 14.2 6.3 6.3 59 3.8 NW 37 44 20 24 987.1 987.1 0.0
29/02:30pm 13.3 3.6 5.9 61 3.5 NW 46 59 25 32 987.2 - 0.0
29/02:00pm 12.6 3.5 5.8 63 3.2 NW 43 52 23 28 987.6 987.6 0.0
29/01:30pm 12.3 3.5 5.7 64 3.1 WNW 41 61 22 33 988.3 - 0.0
29/01:00pm 11.1 1.3 7.0 76 2.0 WNW 48 61 26 33 989.7 989.7 0.0
29/12:30pm 12.9 2.6 6.5 65 3.1 WNW 50 61 27 33 989.6 - 0.0
29/12:11pm 13.9 3.5 6.0 59 3.8 WNW 50 69 27 37 989.2 - 0.0
29/12:00pm 13.7 1.9 5.6 58 3.9 WNW 57 72 31 39 989.0 989.0 0.0
29/11:30am 14.4 2.5 5.2 54 4.3 NW 57 78 31 42 989.0 - 0.0
29/11:08am 14.4 5.1 7.7 64 3.3 NW 46 76 25 41 989.7 - 0.0
29/11:00am 14.4 5.7 8.6 68 3.0 NW 44 61 24 33 989.6 989.6 0.0
29/10:30am 14.2 5.7 8.6 69 2.8 NW 43 56 23 30 989.5 - 0.0
29/10:19am 14.3 6.3 8.9 70 2.7 NNW 41 59 22 32 989.7 - 0.0
29/10:00am 14.2 5.7 9.2 72 2.6 NNW 44 52 24 28 989.5 989.5 0.0
29/09:30am 13.6 4.0 9.3 75 2.2 NNW 50 59 27 32 989.2 - 0.0
29/09:10am 13.1 2.4 9.4 78 1.9 NNW 56 74 30 40 989.6 - 0.0
29/09:00am 13.0 1.3 9.3 78 1.9 NNW 61 72 33 39 989.4 989.4 0.0
29/08:45am 13.5 -0.1 8.8 73 2.4 NNW 70 82 38 44 989.3 - 0.0
29/08:30am 13.7 4.4 9.0 73 2.4 NNW 48 61 26 33 990.5 - 0.0
29/08:00am 13.3 4.7 9.0 75 2.2 NNW 44 57 24 31 990.6 990.7 0.0
29/07:40am 13.2 3.8 8.7 74 2.3 NNW 48 69 26 37 990.3 - 0.0
29/07:30am 13.0 4.4 8.9 76 2.1 NNW 44 56 24 30 990.8 - 0.0
29/07:00am 13.2 3.4 8.7 74 2.3 N 50 61 27 33 991.3 991.4 0.0
29/06:45am 13.2 3.0 8.5 73 2.3 N 52 70 28 38 990.8 - 0.0
29/06:30am 13.1 2.9 8.6 74 2.3 N 52 67 28 36 991.4 - 0.0
29/06:00am 13.0 2.7 8.3 73 2.4 N 52 70 28 38 991.7 991.8 0.0
29/05:47am 12.9 3.7 8.2 73 2.3 NNW 46 70 25 38 991.8 - 0.0
29/05:30am 12.8 3.7 8.5 75 2.1 N 46 61 25 33 992.8 - 0.0
29/05:00am 12.6 4.1 8.5 76 2.1 N 43 57 23 31 994.0 994.1 0.0
29/04:30am 12.4 4.9 8.1 75 2.1 N 37 46 20 25 994.3 - 0.0
29/04:00am 12.2 5.4 7.9 75 2.1 N 33 50 18 27 995.1 995.2 0.0
29/03:30am 12.1 5.3 7.8 75 2.1 N 33 41 18 22 996.2 - 0.0
29/03:00am 12.2 5.4 7.5 73 2.3 N 33 41 18 22 996.4 996.5 0.0
29/02:30am 12.1 4.4 7.2 72 2.4 N 37 46 20 25 996.9 - 0.0
29/02:00am 12.2 4.9 7.3 72 2.4 N 35 44 19 24 997.4 997.5 0.0
29/01:30am 12.0 5.6 7.1 72 2.4 N 30 37 16 20 997.8 - 0.0
29/01:00am 11.6 6.7 6.9 73 2.3 N 22 32 12 17 998.6 998.7 0.0
29/12:30am 11.7 6.8 7.0 73 2.2 NNW 22 30 12 16 999.4 - 0.0
29/12:00am 11.2 7.6 6.7 74 2.1 NNW 15 19 8 10 999.6 999.6 0.0
 
Date/Time
EST
Temp
°C
App
Temp
°C
Dew
Point
Rel
Hum
%
Delta-T
°C
Wind Press
QNH
hPa
Press
MSL
hPa
Rain
since 9 am
mm
Dir
 
Spd
km/h
Gust
km/h
Spd
kts
Gust
kts
28/11:30pm 11.5 6.2 7.0 74 2.2 N 24 32 13 17 999.7 - 0.0
28/11:00pm 11.4 6.0 6.5 72 2.3 N 24 32 13 17 1000.3 1000.3 0.0
28/10:30pm 11.6 5.2 6.9 73 2.2 NNW 30 39 16 21 1000.8 - 0.0
28/10:00pm 11.9 4.4 6.4 69 2.6 NNW 35 44 19 24 1000.8 1000.8 0.0
28/09:30pm 12.4 6.7 6.9 69 2.6 N 26 35 14 19 1000.7 - 0.0
28/09:00pm 12.5 8.4 7.8 73 2.3 NNW 19 26 10 14 1001.6 1001.6 0.0
28/08:30pm 12.9 8.7 8.4 74 2.2 N 20 24 11 13 1001.8 - 0.0
28/08:00pm 12.5 8.3 7.6 72 2.4 NNW 19 24 10 13 1001.9 1001.9 0.0
28/07:30pm 12.6 9.3 7.9 73 2.3 NW 15 20 8 11 1002.1 - 0.0

Other Formats:

Comma delimited format used in spreadsheet applications
http://www.bom.gov.au/fwo/IDT60801/IDT60801.95988.axf

JavaScript Object Notation format (JSON) in row-major order
http://www.bom.gov.au/fwo/IDT60801/IDT60801.95988.json